Terminal Aerodrome Forecast
Issued by NWS

Home | Current Version | Previous Version | Text Only | Print | Product List | Glossary On
Versions: 1 2 3 4 5 6 7 8 9 10 11 12 13 14 15 16 17 18 19 20 21
000
FTUS45 KGJT 241514 AAB
TAFTEX
TAF AMD
KTEX 241514Z 2415/2512 28003KT 1SM -SN VCSH BKN009 OVC016
      TEMPO 2415/2418 3SM -SN OVC017
     FM241800 27008KT 2SM -SHSN OVC015
     FM242300 29007KT 4SM -SHSN OVC025
     FM250200 VRB03KT P6SM VCSH BKN030=

USA.gov is the U.S. government's official web portal to all federal, state and local government web resources and services.